Terminal Aerodrome Forecast
Issued by NWS

Home | Current Version | Previous Version | Text Only | Print | Product List | Glossary On
Versions: 1 2 3 4 5 6 7 8 9 10 11 12
000
FTUS46 KSGX 292339
TAFONT
TAF
KONT 292339Z 3000/3106 26011KT P6SM SCT250
     FM300400 VRB04KT P6SM FEW250
     FM302100 26011KT P6SM SCT250
     FM310400 VRB05KT P6SM SKC=

USA.gov is the U.S. government's official web portal to all federal, state and local government web resources and services.